Time;durP1;ratioP1;P1;durP2;ratioP2;P2;SDS_P1;SDS_P2;PMS_P1;PMS_P2;Temp;Humidity;BMP_temperature;BMP_pressure;BME280_temperature;BME280_humidity;BME280_pressure;Samples;Min_cycle;Max_cycle;Signal;HPM_P1;HPM_P2
2023/10/30 00:00:26;;;;;;;64.07;40.07;;;12.20;99.90;;;;;;5055976;28;20757;-77
2023/10/30 00:02:51;;;;;;;62.70;35.27;;;12.30;99.90;;;;;;5037871;28;20181;-77
2023/10/30 00:05:17;;;;;;;60.27;37.10;;;12.30;99.90;;;;;;5056019;28;20435;-76
2023/10/30 00:07:43;;;;;;;62.30;35.50;;;12.30;99.90;;;;;;5056342;28;20166;-77
2023/10/30 00:10:09;;;;;;;58.87;36.17;;;12.20;99.90;;;;;;5056055;28;20654;-77
2023/10/30 00:12:35;;;;;;;62.63;39.90;;;12.20;99.90;;;;;;5055918;28;20192;-77
2023/10/30 00:15:03;;;;;;;73.33;52.60;;;12.20;99.90;;;;;;5056092;28;20173;-76
2023/10/30 00:17:31;;;;;;;67.80;50.58;;;12.10;99.90;;;;;;5141052;22;20487;-76
2023/10/30 00:19:57;;;;;;;63.65;46.38;;;12.10;99.90;;;;;;5056015;28;20165;-76
2023/10/30 00:22:22;;;;;;;65.27;49.60;;;12.10;99.90;;;;;;5055790;28;20161;-77
2023/10/30 00:24:48;;;;;;;65.70;53.10;;;12.10;99.90;;;;;;5055603;28;20248;-77
2023/10/30 00:27:16;;;;;;;66.03;47.53;;;12.10;99.90;;;;;;5054236;28;20174;-76
2023/10/30 00:29:42;;;;;;;67.10;51.05;;;12.10;99.90;;;;;;5055440;28;20296;-77
2023/10/30 00:32:08;;;;;;;70.47;50.35;;;12.20;99.90;;;;;;5055316;28;20169;-77
2023/10/30 00:34:34;;;;;;;66.33;50.33;;;12.10;99.90;;;;;;5055592;28;20196;-76
2023/10/30 00:37:00;;;;;;;72.95;61.88;;;12.10;99.90;;;;;;5055418;28;20215;-77
2023/10/30 00:39:27;;;;;;;67.43;54.43;;;12.00;99.90;;;;;;5054908;28;20170;-76
2023/10/30 00:41:53;;;;;;;71.50;63.80;;;12.10;99.90;;;;;;5055182;28;20176;-77
2023/10/30 00:44:18;;;;;;;71.80;64.00;;;12.10;99.90;;;;;;5055136;28;20420;-76
2023/10/30 00:46:44;;;;;;;72.57;64.83;;;12.00;99.90;;;;;;5055652;28;20691;-77
2023/10/30 00:49:10;;;;;;;80.47;70.53;;;12.00;99.90;;;;;;5055085;28;20169;-77
2023/10/30 00:51:38;;;;;;;84.07;75.60;;;12.00;99.90;;;;;;5055310;28;20173;-76
2023/10/30 00:54:04;;;;;;;91.15;82.07;;;12.00;99.90;;;;;;5054872;28;20182;-77
2023/10/30 00:56:30;;;;;;;78.27;68.83;;;12.00;99.90;;;;;;5055119;28;20719;-77
2023/10/30 00:58:55;;;;;;;82.80;74.53;;;12.10;99.90;;;;;;5055177;28;20189;-77
2023/10/30 01:01:23;;;;;;;95.70;86.40;;;12.00;99.90;;;;;;5054453;28;20253;-77
2023/10/30 01:03:48;;;;;;;84.03;75.57;;;12.00;99.90;;;;;;5054613;28;20193;-76
2023/10/30 01:06:14;;;;;;;76.27;67.33;;;12.00;99.90;;;;;;5055235;28;20161;-77
2023/10/30 01:08:40;;;;;;;73.67;64.93;;;12.00;99.90;;;;;;5053403;28;20318;-77
2023/10/30 01:11:06;;;;;;;76.97;68.78;;;12.10;99.90;;;;;;5054978;28;20180;-77
2023/10/30 01:13:32;;;;;;;78.30;69.77;;;12.00;99.90;;;;;;5054524;28;20185;-76
2023/10/30 01:15:58;;;;;;;96.15;86.82;;;12.10;99.90;;;;;;5054458;28;20203;-77
2023/10/30 01:18:24;;;;;;;93.30;83.63;;;12.00;99.90;;;;;;5054391;28;20177;-77
2023/10/30 01:20:50;;;;;;;77.57;69.57;;;12.00;99.90;;;;;;5054471;28;20478;-77
2023/10/30 01:23:16;;;;;;;80.67;72.37;;;12.10;99.90;;;;;;5054439;28;20654;-77
2023/10/30 01:25:42;;;;;;;104.38;94.70;;;12.10;99.90;;;;;;5054512;28;20165;-77
2023/10/30 01:28:07;;;;;;;92.07;82.43;;;12.10;99.90;;;;;;5054420;28;20596;-77
2023/10/30 01:30:33;;;;;;;85.77;77.40;;;12.00;99.90;;;;;;5054321;28;20248;-77
2023/10/30 01:33:01;;;;;;;92.50;82.93;;;12.00;99.90;;;;;;5054172;28;20181;-77
2023/10/30 01:35:27;;;;;;;94.70;85.57;;;12.00;99.90;;;;;;5054571;28;20165;-77
2023/10/30 01:37:53;;;;;;;93.67;84.70;;;12.00;99.90;;;;;;5054065;28;20279;-77
2023/10/30 01:40:21;;;;;;;95.93;87.17;;;12.00;99.90;;;;;;5054191;28;20248;-77
2023/10/30 01:42:47;;;;;;;100.80;91.68;;;12.00;99.90;;;;;;5054009;28;20226;-77
2023/10/30 01:45:13;;;;;;;104.00;94.80;;;12.00;99.90;;;;;;5054010;28;20161;-77
2023/10/30 01:47:39;;;;;;;90.30;81.63;;;12.00;99.90;;;;;;5054269;28;20965;-77
2023/10/30 01:50:07;;;;;;;97.85;88.28;;;12.00;99.90;;;;;;5053524;28;20231;-77
2023/10/30 01:52:34;;;;;;;95.63;86.70;;;12.00;99.90;;;;;;5053743;28;20197;-77
2023/10/30 01:55:00;;;;;;;98.90;89.80;;;12.10;99.90;;;;;;5053839;28;20772;-77
2023/10/30 01:57:28;;;;;;;98.03;89.05;;;12.10;99.90;;;;;;5053940;28;20188;-77
2023/10/30 01:59:56;;;;;;;90.40;81.63;;;12.00;99.90;;;;;;5054160;28;20168;-77
2023/10/30 02:02:23;;;;;;;97.10;87.68;;;12.00;99.90;;;;;;5053618;28;20223;-77
2023/10/30 02:04:49;;;;;;;102.30;92.63;;;12.10;99.90;;;;;;5053862;28;20252;-76
2023/10/30 02:07:15;;;;;;;86.13;77.70;;;12.00;99.90;;;;;;5053974;28;20180;-77
2023/10/30 02:09:42;;;;;;;93.53;84.50;;;12.10;99.90;;;;;;5053973;28;20177;-77
2023/10/30 02:12:08;;;;;;;84.30;75.47;;;12.10;99.90;;;;;;5054595;28;20574;-77
2023/10/30 02:14:34;;;;;;;88.75;79.80;;;12.10;99.90;;;;;;5053379;28;20189;-76
2023/10/30 02:17:00;;;;;;;93.18;84.32;;;12.00;99.90;;;;;;5051935;28;20197;-77
2023/10/30 02:19:27;;;;;;;90.57;78.27;;;12.10;99.90;;;;;;5053624;28;20173;-76
2023/10/30 02:21:54;;;;;;;93.63;84.70;;;12.00;99.90;;;;;;5053394;28;20526;-77
2023/10/30 02:24:21;;;;;;;90.00;81.60;;;12.10;99.90;;;;;;5053216;28;20431;-77
2023/10/30 02:26:50;;;;;;;92.30;83.35;;;12.10;99.90;;;;;;5053235;28;20205;-77
2023/10/30 02:29:17;;;;;;;88.32;79.72;;;12.10;99.90;;;;;;5053312;28;20252;-77
2023/10/30 02:31:43;;;;;;;102.00;92.50;;;12.10;99.90;;;;;;5035359;28;20172;-76
2023/10/30 02:34:10;;;;;;;99.40;90.10;;;12.10;99.90;;;;;;5053066;28;20593;-77
2023/10/30 02:36:35;;;;;;;109.68;99.95;;;12.10;99.90;;;;;;5052978;28;20465;-77
2023/10/30 02:39:04;;;;;;;105.07;95.40;;;12.00;99.90;;;;;;5053337;28;20577;-77
2023/10/30 02:41:31;;;;;;;98.35;89.50;;;12.10;99.90;;;;;;5051807;28;20251;-77
2023/10/30 02:43:59;;;;;;;104.72;94.88;;;12.10;99.90;;;;;;5053046;28;20180;-76
2023/10/30 02:46:25;;;;;;;98.28;89.22;;;12.10;99.90;;;;;;5053016;28;20195;-76
2023/10/30 02:48:51;;;;;;;111.30;101.45;;;12.00;99.90;;;;;;5052935;28;20219;-77
2023/10/30 02:51:17;;;;;;;104.53;94.63;;;12.10;99.90;;;;;;5052934;28;20161;-77
2023/10/30 02:53:43;;;;;;;115.55;104.40;;;12.00;99.90;;;;;;5052869;28;20264;-76
2023/10/30 02:56:09;;;;;;;110.43;100.43;;;12.00;99.90;;;;;;5052827;28;20581;-77
2023/10/30 02:58:35;;;;;;;104.17;94.23;;;12.00;99.90;;;;;;5034993;28;20168;-76
2023/10/30 03:01:02;;;;;;;92.63;83.93;;;12.00;99.90;;;;;;5052825;28;20404;-77
2023/10/30 03:03:28;;;;;;;102.85;93.57;;;12.10;99.90;;;;;;5057031;28;20685;-77
2023/10/30 03:05:54;;;;;;;101.18;91.75;;;12.00;99.90;;;;;;5057138;28;20165;-76
2023/10/30 03:08:20;;;;;;;95.67;86.63;;;12.10;99.90;;;;;;5057209;28;20165;-76
2023/10/30 03:10:47;;;;;;;123.50;113.33;;;12.10;99.90;;;;;;5057162;28;20173;-76
2023/10/30 03:13:13;;;;;;;120.85;110.72;;;12.10;99.90;;;;;;5056754;28;20181;-77
2023/10/30 03:15:38;;;;;;;104.23;95.17;;;12.00;99.90;;;;;;5056762;28;20164;-77
2023/10/30 03:18:04;;;;;;;99.97;90.97;;;12.00;99.90;;;;;;5056906;28;20435;-77
2023/10/30 03:20:30;;;;;;;94.37;85.60;;;12.10;99.90;;;;;;5056730;28;20207;-77
2023/10/30 03:22:55;;;;;;;101.83;92.27;;;12.10;99.90;;;;;;5056615;28;20701;-77
2023/10/30 03:25:21;;;;;;;92.53;83.93;;;12.10;99.90;;;;;;5056732;28;20172;-77
2023/10/30 03:27:46;;;;;;;101.53;92.00;;;12.10;99.90;;;;;;5056572;28;20165;-77
2023/10/30 03:30:12;;;;;;;101.47;91.80;;;12.10;99.90;;;;;;5056603;28;20165;-77
2023/10/30 03:32:38;;;;;;;83.17;75.00;;;12.20;99.90;;;;;;5056411;28;20196;-76
2023/10/30 03:35:04;;;;;;;94.20;85.43;;;12.20;99.90;;;;;;5056571;28;20171;-76
2023/10/30 03:37:29;;;;;;;94.13;84.90;;;12.10;99.90;;;;;;5056975;28;20612;-77
2023/10/30 03:39:57;;;;;;;99.50;90.20;;;12.10;99.90;;;;;;5056720;28;20563;-77
2023/10/30 03:42:22;;;;;;;108.60;99.20;;;12.00;99.90;;;;;;5055017;28;20169;-77
2023/10/30 03:44:48;;;;;;;102.53;93.20;;;12.00;99.90;;;;;;5056308;28;20188;-76
2023/10/30 03:47:14;;;;;;;110.07;99.83;;;12.00;99.90;;;;;;5056234;28;20165;-76
2023/10/30 03:49:40;;;;;;;115.97;105.50;;;12.10;99.90;;;;;;5056200;28;20534;-77
2023/10/30 03:52:06;;;;;;;105.28;96.22;;;12.00;99.90;;;;;;5056189;28;20563;-77
2023/10/30 03:54:31;;;;;;;105.90;96.33;;;12.00;99.90;;;;;;5056005;28;20271;-77
2023/10/30 03:56:57;;;;;;;108.13;98.37;;;12.00;99.90;;;;;;5056041;28;20212;-76
2023/10/30 03:59:26;;;;;;;101.37;92.23;;;12.00;99.90;;;;;;5055971;28;20165;-77
2023/10/30 04:01:52;;;;;;;98.25;88.95;;;12.00;99.90;;;;;;5055969;28;20185;-76
2023/10/30 04:04:18;;;;;;;100.40;91.30;;;12.00;99.90;;;;;;5056223;28;20209;-76
2023/10/30 04:06:43;;;;;;;110.25;100.68;;;12.00;99.90;;;;;;5055781;28;20661;-76
2023/10/30 04:09:09;;;;;;;111.07;101.17;;;12.00;99.90;;;;;;5038039;28;20180;-76
2023/10/30 04:11:35;;;;;;;102.53;93.40;;;12.00;99.90;;;;;;5054571;28;20173;-77
2023/10/30 04:14:01;;;;;;;103.43;93.37;;;12.00;99.90;;;;;;5054905;28;20200;-77
2023/10/30 04:16:28;;;;;;;105.97;96.17;;;11.90;99.90;;;;;;5055625;28;20236;-77
2023/10/30 04:18:54;;;;;;;102.72;93.32;;;12.00;99.90;;;;;;5056102;28;20231;-77
2023/10/30 04:21:19;;;;;;;111.27;101.57;;;11.90;99.90;;;;;;5056005;28;20166;-77
2023/10/30 04:23:45;;;;;;;109.83;99.93;;;12.00;99.90;;;;;;5055524;28;20223;-77
2023/10/30 04:26:11;;;;;;;102.20;93.07;;;11.90;99.90;;;;;;5055485;28;20563;-77
2023/10/30 04:28:37;;;;;;;97.53;88.35;;;11.90;99.90;;;;;;5055491;28;20206;-77
2023/10/30 04:31:06;;;;;;;98.17;88.30;;;11.90;99.90;;;;;;5055383;28;20245;-77
2023/10/30 04:33:31;;;;;;;113.32;102.75;;;11.90;99.90;;;;;;5055321;28;20658;-77
2023/10/30 04:36:02;;;;;;;105.03;95.63;;;11.90;99.90;;;;;;5055240;28;20192;-77
2023/10/30 04:38:32;;;;;;;104.90;95.53;;;11.90;99.90;;;;;;5055587;28;20195;-77
2023/10/30 04:41:04;;;;;;;97.65;88.03;;;11.90;99.90;;;;;;5055263;28;20756;-77
2023/10/30 04:43:34;;;;;;;107.95;98.53;;;11.90;99.90;;;;;;5055360;28;20541;-77
2023/10/30 04:46:00;;;;;;;94.80;86.05;;;11.90;99.90;;;;;;5055168;28;20287;-77
2023/10/30 04:48:25;;;;;;;102.07;92.75;;;11.90;99.90;;;;;;5055080;28;20168;-77
2023/10/30 04:50:51;;;;;;;103.73;94.30;;;11.90;99.90;;;;;;5055940;28;20195;-77
2023/10/30 04:53:17;;;;;;;100.15;91.00;;;11.90;99.90;;;;;;5055157;28;20204;-77
2023/10/30 04:55:43;;;;;;;99.53;89.97;;;11.90;99.90;;;;;;5054895;28;20165;-76
2023/10/30 04:58:08;;;;;;;113.33;103.60;;;11.90;99.90;;;;;;5054972;28;20203;-77
2023/10/30 05:00:35;;;;;;;105.93;96.97;;;11.80;99.90;;;;;;5054857;28;20161;-77
2023/10/30 05:03:01;;;;;;;122.82;112.65;;;11.80;99.90;;;;;;5051700;28;20216;-77
2023/10/30 05:05:27;;;;;;;123.80;113.83;;;11.80;99.90;;;;;;5054796;28;20170;-76
2023/10/30 05:07:52;;;;;;;103.50;94.40;;;11.80;99.90;;;;;;5055291;28;20803;-77
2023/10/30 05:10:18;;;;;;;104.93;95.73;;;11.80;99.90;;;;;;5054701;28;20173;-77
2023/10/30 05:12:44;;;;;;;105.20;96.03;;;11.80;99.90;;;;;;5054810;28;20565;-77
2023/10/30 05:15:09;;;;;;;108.57;99.33;;;11.80;99.90;;;;;;5054777;28;20665;-77
2023/10/30 05:17:37;;;;;;;130.93;120.10;;;11.90;99.90;;;;;;5054376;28;20197;-77
2023/10/30 05:20:03;;;;;;;112.10;102.65;;;11.90;99.90;;;;;;5054792;28;20161;-77
2023/10/30 05:22:29;;;;;;;107.80;98.68;;;11.90;99.90;;;;;;5054683;28;20170;-77
2023/10/30 05:24:55;;;;;;;109.60;100.10;;;11.90;99.90;;;;;;5053675;28;20176;-77
2023/10/30 05:27:21;;;;;;;132.57;122.40;;;11.90;99.90;;;;;;5054432;28;20193;-76
2023/10/30 05:29:46;;;;;;;108.60;99.10;;;11.90;99.90;;;;;;5054562;28;20173;-76
2023/10/30 05:32:12;;;;;;;107.67;98.57;;;11.90;99.90;;;;;;5054190;28;20215;-77
2023/10/30 05:34:38;;;;;;;106.90;97.43;;;11.90;99.90;;;;;;5053023;28;20179;-77
2023/10/30 05:37:06;;;;;;;97.67;88.70;;;11.90;99.90;;;;;;5054159;28;20185;-77
2023/10/30 05:39:32;;;;;;;107.85;98.00;;;11.90;99.90;;;;;;5054141;28;20195;-76
2023/10/30 05:41:58;;;;;;;109.20;99.88;;;11.90;99.90;;;;;;5053057;28;20165;-77
2023/10/30 05:44:24;;;;;;;105.53;96.35;;;11.80;99.90;;;;;;5053963;28;20173;-77
2023/10/30 05:46:50;;;;;;;104.93;95.63;;;11.80;99.90;;;;;;5054045;28;20176;-76
2023/10/30 05:49:15;;;;;;;124.60;114.70;;;11.80;99.90;;;;;;5053960;28;20640;-77
2023/10/30 05:51:41;;;;;;;108.57;99.07;;;11.80;99.90;;;;;;5053879;28;20542;-76
2023/10/30 05:54:07;;;;;;;113.23;103.63;;;11.80;99.90;;;;;;5053860;28;20279;-77
2023/10/30 05:56:32;;;;;;;111.90;101.97;;;11.80;99.90;;;;;;5053732;28;20225;-76
2023/10/30 05:58:59;;;;;;;112.97;103.50;;;11.80;99.90;;;;;;5036031;28;20193;-76
2023/10/30 06:01:25;;;;;;;106.97;97.43;;;11.80;99.90;;;;;;5053784;28;20169;-77
2023/10/30 06:03:50;;;;;;;106.87;97.43;;;11.70;99.90;;;;;;5053696;28;20185;-76
2023/10/30 06:06:19;;;;;;;112.27;102.40;;;11.70;99.90;;;;;;5054166;28;20644;-77
2023/10/30 06:08:45;;;;;;;118.07;108.28;;;11.70;99.90;;;;;;5053519;28;20208;-77
2023/10/30 06:11:11;;;;;;;111.20;101.90;;;11.60;99.90;;;;;;5053600;28;20165;-77
2023/10/30 06:13:36;;;;;;;121.77;112.10;;;11.60;99.90;;;;;;5053666;28;20235;-76
2023/10/30 06:16:02;;;;;;;108.33;98.93;;;11.60;99.90;;;;;;5052182;28;20200;-76
2023/10/30 06:18:28;;;;;;;128.33;117.97;;;11.60;99.90;;;;;;5053347;28;20177;-76
2023/10/30 06:20:53;;;;;;;127.80;117.43;;;11.60;99.90;;;;;;5053404;28;20635;-77
2023/10/30 06:23:19;;;;;;;118.73;108.33;;;11.60;99.90;;;;;;5053099;28;20185;-76
2023/10/30 06:25:48;;;;;;;124.00;113.90;;;11.50;99.90;;;;;;5053192;28;20170;-76
2023/10/30 06:28:17;;;;;;;150.38;138.27;;;11.50;99.90;;;;;;5053078;28;20244;-77
2023/10/30 06:30:43;;;;;;;131.43;121.03;;;11.50;99.90;;;;;;5053284;28;20153;-77
2023/10/30 06:33:09;;;;;;;131.37;121.20;;;11.50;99.90;;;;;;5053202;28;20185;-77
2023/10/30 06:35:34;;;;;;;129.13;118.90;;;11.50;99.90;;;;;;5053028;28;20177;-76
2023/10/30 06:38:00;;;;;;;143.10;131.73;;;11.60;99.90;;;;;;5052662;28;20443;-76
2023/10/30 06:40:25;;;;;;;130.47;119.70;;;11.60;99.90;;;;;;5053064;28;20526;-77
2023/10/30 06:42:51;;;;;;;120.93;111.00;;;11.60;99.90;;;;;;5052853;28;20254;-77
2023/10/30 06:45:17;;;;;;;125.77;114.87;;;11.60;99.90;;;;;;5052884;28;20165;-76
2023/10/30 06:47:44;;;;;;;126.23;115.83;;;11.60;99.90;;;;;;5052889;28;20630;-76
2023/10/30 06:50:12;;;;;;;98.05;88.85;;;11.60;99.90;;;;;;5052837;28;20662;-77
2023/10/30 06:52:37;;;;;;;105.55;95.70;;;11.60;99.90;;;;;;5052945;28;20562;-77
2023/10/30 06:55:03;;;;;;;115.40;105.50;;;11.60;99.90;;;;;;5053464;28;20161;-76
2023/10/30 06:57:29;;;;;;;116.55;106.78;;;11.60;99.90;;;;;;5053065;28;20189;-77
2023/10/30 06:59:57;;;;;;;123.27;113.37;;;11.60;99.90;;;;;;5053110;28;20212;-77
2023/10/30 07:02:22;;;;;;;120.00;109.20;;;11.50;99.90;;;;;;5052796;28;20169;-77
2023/10/30 07:04:48;;;;;;;107.27;96.80;;;11.60;99.90;;;;;;5053143;28;20165;-77
2023/10/30 07:07:14;;;;;;;105.47;96.30;;;11.60;99.90;;;;;;5053093;28;20247;-77
2023/10/30 07:09:40;;;;;;;116.63;106.97;;;11.60;99.90;;;;;;5052765;28;20157;-77
2023/10/30 07:12:05;;;;;;;109.10;99.55;;;11.60;99.90;;;;;;5052743;28;20173;-76
2023/10/30 07:14:32;;;;;;;110.50;100.63;;;11.60;99.90;;;;;;5052864;28;20189;-76
2023/10/30 07:16:58;;;;;;;112.13;102.47;;;11.70;99.90;;;;;;5052870;28;20447;-76
2023/10/30 07:19:24;;;;;;;109.90;100.53;;;11.60;99.90;;;;;;5052666;28;20177;-76
2023/10/30 07:21:51;;;;;;;120.53;110.33;;;11.70;99.90;;;;;;5053265;28;20549;-77
2023/10/30 07:24:17;;;;;;;129.80;119.35;;;11.70;99.90;;;;;;5052912;28;20216;-76
2023/10/30 07:26:43;;;;;;;106.03;96.90;;;11.70;99.90;;;;;;5051333;28;20169;-77
2023/10/30 07:29:09;;;;;;;115.88;105.93;;;11.70;99.90;;;;;;5051273;28;20299;-76
2023/10/30 07:31:34;;;;;;;122.43;112.63;;;11.80;99.90;;;;;;5052584;28;20677;-76
2023/10/30 07:34:00;;;;;;;113.03;103.23;;;11.80;99.90;;;;;;5052514;28;20276;-76
2023/10/30 07:36:26;;;;;;;124.60;114.47;;;11.80;99.90;;;;;;5052517;28;20225;-76
2023/10/30 07:38:52;;;;;;;144.87;133.00;;;11.80;99.90;;;;;;5052761;28;20430;-77
2023/10/30 07:41:17;;;;;;;135.40;125.00;;;11.80;99.90;;;;;;5052475;28;20392;-77
2023/10/30 07:43:43;;;;;;;131.50;121.00;;;11.80;99.90;;;;;;5052397;28;20181;-76
2023/10/30 07:46:13;;;;;;;124.83;113.87;;;11.90;99.90;;;;;;5052445;28;20193;-77
2023/10/30 07:48:39;;;;;;;141.00;130.00;;;11.90;99.90;;;;;;5053570;28;20632;-77
2023/10/30 07:51:04;;;;;;;145.00;133.23;;;11.90;99.90;;;;;;5056164;28;20193;-77
2023/10/30 07:53:31;;;;;;;158.80;147.07;;;11.90;99.90;;;;;;5054696;28;20192;-77
2023/10/30 07:55:57;;;;;;;152.98;141.45;;;11.90;99.90;;;;;;5053910;28;20181;-76
2023/10/30 07:58:23;;;;;;;143.27;132.10;;;12.00;99.90;;;;;;5056001;28;20176;-77
2023/10/30 08:00:49;;;;;;;140.73;130.03;;;12.00;99.90;;;;;;5056060;28;20168;-77
2023/10/30 08:03:15;;;;;;;144.68;132.90;;;12.00;99.90;;;;;;5056057;28;20185;-77
2023/10/30 08:05:43;;;;;;;132.30;121.63;;;12.00;99.90;;;;;;5056126;28;20260;-77
2023/10/30 08:08:09;;;;;;;140.23;129.30;;;12.10;99.90;;;;;;5056076;28;20181;-77
2023/10/30 08:10:35;;;;;;;140.57;130.03;;;12.10;99.90;;;;;;5056357;28;20637;-77
2023/10/30 08:13:00;;;;;;;176.43;164.03;;;12.10;99.90;;;;;;5055667;28;20192;-77
2023/10/30 08:15:26;;;;;;;139.70;129.03;;;12.20;99.90;;;;;;5055725;28;20165;-77
2023/10/30 08:17:53;;;;;;;138.13;127.33;;;12.30;99.90;;;;;;5054218;28;20240;-77
2023/10/30 08:20:19;;;;;;;131.52;121.30;;;12.30;99.90;;;;;;5055605;28;20579;-77
2023/10/30 08:22:44;;;;;;;130.13;119.87;;;12.40;99.90;;;;;;5055493;28;20209;-77
2023/10/30 08:25:10;;;;;;;152.00;140.23;;;12.50;99.90;;;;;;5055516;28;20623;-77
2023/10/30 08:27:36;;;;;;;126.83;116.83;;;12.50;99.90;;;;;;5055504;28;20165;-77
2023/10/30 08:30:02;;;;;;;129.13;118.73;;;12.60;99.90;;;;;;5055751;28;20165;-76
2023/10/30 08:32:31;;;;;;;132.00;121.15;;;12.70;99.90;;;;;;5055335;28;20227;-76
2023/10/30 08:34:58;;;;;;;110.15;100.43;;;12.80;99.90;;;;;;5055374;28;20173;-77
2023/10/30 08:37:24;;;;;;;108.85;98.70;;;12.90;99.90;;;;;;5055300;28;20553;-77
2023/10/30 08:39:49;;;;;;;99.90;90.80;;;13.00;99.90;;;;;;5055515;28;20165;-77
2023/10/30 08:42:15;;;;;;;105.93;96.80;;;13.10;99.90;;;;;;5055175;28;20149;-77
2023/10/30 08:44:40;;;;;;;101.40;92.33;;;13.20;99.90;;;;;;5055363;28;20165;-77
2023/10/30 08:47:06;;;;;;;117.03;107.13;;;13.30;99.90;;;;;;5055212;28;20643;-77
2023/10/30 08:49:32;;;;;;;113.87;104.50;;;13.40;99.90;;;;;;5055351;28;20203;-77
2023/10/30 08:51:58;;;;;;;94.77;86.03;;;13.40;99.90;;;;;;5055243;28;20420;-76
2023/10/30 08:54:23;;;;;;;98.57;89.67;;;13.50;99.90;;;;;;5054934;28;20477;-76
2023/10/30 08:56:50;;;;;;;111.63;102.37;;;13.50;99.90;;;;;;5054899;28;20185;-76
2023/10/30 08:59:16;;;;;;;104.53;95.27;;;13.50;99.90;;;;;;5054749;28;20181;-77
2023/10/30 09:01:41;;;;;;;109.23;99.73;;;13.60;99.90;;;;;;5054899;28;20955;-77
2023/10/30 09:04:08;;;;;;;98.43;89.67;;;13.60;99.90;;;;;;5054809;28;20264;-77
2023/10/30 09:06:34;;;;;;;89.53;81.03;;;13.70;99.90;;;;;;5054718;28;20199;-77
2023/10/30 09:09:00;;;;;;;86.10;77.87;;;13.80;99.90;;;;;;5054747;28;20433;-77
2023/10/30 09:11:25;;;;;;;78.03;69.93;;;13.80;99.90;;;;;;5054971;28;20411;-76
2023/10/30 09:13:51;;;;;;;76.87;68.60;;;13.90;99.90;;;;;;5054519;28;20196;-76
2023/10/30 09:16:17;;;;;;;70.20;59.73;;;13.90;99.90;;;;;;5054599;28;20196;-76
2023/10/30 09:18:42;;;;;;;68.17;55.63;;;14.00;99.90;;;;;;5054496;28;20199;-76
2023/10/30 09:21:09;;;;;;;65.30;51.63;;;14.10;99.90;;;;;;5054525;28;20158;-77
2023/10/30 09:23:34;;;;;;;70.50;50.57;;;14.10;99.90;;;;;;5054373;28;20181;-76
2023/10/30 09:26:00;;;;;;;63.00;52.43;;;14.20;99.90;;;;;;5054714;28;20442;-77
2023/10/30 09:28:26;;;;;;;64.70;54.03;;;14.30;99.90;;;;;;5054401;28;20165;-76
2023/10/30 09:30:52;;;;;;;63.10;51.20;;;14.30;99.90;;;;;;5054328;28;20169;-77
2023/10/30 09:33:18;;;;;;;63.07;53.23;;;14.30;99.90;;;;;;5054383;28;20199;-77
2023/10/30 09:35:43;;;;;;;62.20;44.30;;;14.30;99.90;;;;;;5055090;28;20847;-76
2023/10/30 09:38:09;;;;;;;62.57;47.23;;;14.40;99.90;;;;;;5054092;28;20189;-76
2023/10/30 09:40:35;;;;;;;58.97;39.27;;;14.40;99.90;;;;;;5054188;28;20503;-77
2023/10/30 09:43:09;;;;;;;60.83;45.40;;;14.50;99.90;;;;;;5054063;28;20185;-77
2023/10/30 09:45:37;;;;;;;57.77;38.17;;;14.40;99.90;;;;;;5054344;28;20388;-77
2023/10/30 09:48:05;;;;;;;56.57;37.73;;;14.50;99.90;;;;;;5053928;28;20404;-77
2023/10/30 09:50:31;;;;;;;56.57;33.77;;;14.50;99.90;;;;;;5053847;28;20908;-76
2023/10/30 09:52:59;;;;;;;57.10;36.73;;;14.50;99.90;;;;;;5053879;28;20423;-76
2023/10/30 09:55:25;;;;;;;57.07;37.37;;;14.40;99.90;;;;;;5053834;28;20400;-76
2023/10/30 09:57:52;;;;;;;59.30;41.77;;;14.40;99.90;;;;;;5053710;28;21041;-76
2023/10/30 10:00:19;;;;;;;56.87;37.07;;;14.40;99.90;;;;;;5054018;28;20400;-76
2023/10/30 10:02:45;;;;;;;56.97;39.63;;;14.40;99.90;;;;;;5053817;28;20424;-76
2023/10/30 10:05:17;;;;;;;58.97;37.27;;;14.40;99.90;;;;;;5053710;28;20861;-76
2023/10/30 10:07:45;;;;;;;57.60;38.57;;;14.50;99.90;;;;;;5053798;28;20399;-76
2023/10/30 10:10:17;;;;;;;56.53;38.17;;;14.50;99.90;;;;;;5053525;28;20404;-76
2023/10/30 10:12:43;;;;;;;60.20;43.23;;;14.60;99.90;;;;;;5052854;28;20420;-76
2023/10/30 10:15:09;;;;;;;61.60;45.80;;;14.70;99.90;;;;;;5053436;28;20415;-76
2023/10/30 10:17:44;;;;;;;62.63;48.00;;;14.70;99.90;;;;;;5053260;28;20211;-76
2023/10/30 10:20:11;;;;;;;64.33;44.97;;;14.70;99.90;;;;;;5053930;28;20214;-76
2023/10/30 10:22:37;;;;;;;59.30;43.27;;;14.80;99.90;;;;;;5053296;28;20435;-76
2023/10/30 10:25:05;;;;;;;62.20;44.63;;;14.80;99.90;;;;;;5053672;28;20379;-78
2023/10/30 10:27:30;;;;;;;58.87;34.17;;;14.70;99.90;;;;;;5052842;28;20392;-76
2023/10/30 10:29:58;;;;;;;57.27;39.23;;;14.80;99.90;;;;;;5053562;28;20407;-76
2023/10/30 10:32:27;;;;;;;57.87;34.23;;;14.80;99.90;;;;;;5053086;28;20646;-76
2023/10/30 10:34:57;;;;;;;58.40;37.40;;;14.80;99.90;;;;;;5053148;28;20487;-76
2023/10/30 10:37:23;;;;;;;58.33;40.50;;;14.80;99.90;;;;;;5053008;28;20443;-76
2023/10/30 10:39:51;;;;;;;58.27;37.13;;;14.80;99.90;;;;;;5053095;28;20406;-76
2023/10/30 10:42:18;;;;;;;61.30;43.67;;;14.80;99.90;;;;;;5052978;28;20591;-76
2023/10/30 10:44:46;;;;;;;61.60;43.77;;;14.90;99.90;;;;;;5053280;28;20900;-76
2023/10/30 10:47:12;;;;;;;61.27;42.00;;;15.00;99.90;;;;;;5051796;28;20501;-76
2023/10/30 10:49:38;;;;;;;57.50;36.87;;;15.00;99.90;;;;;;5052961;28;20495;-76
2023/10/30 10:52:08;;;;;;;60.50;47.47;;;15.00;99.90;;;;;;5053231;28;20863;-76
2023/10/30 10:54:44;;;;;;;57.63;41.40;;;15.10;99.90;;;;;;5052911;28;20189;-76
2023/10/30 10:57:16;;;;;;;58.40;36.97;;;15.10;99.90;;;;;;5053196;28;20426;-76
2023/10/30 10:59:45;;;;;;;58.00;39.97;;;15.20;99.90;;;;;;5052934;28;20373;-76
2023/10/30 11:02:21;;;;;;;53.57;29.77;;;15.20;99.90;;;;;;5053004;28;20403;-76
2023/10/30 11:04:53;;;;;;;56.93;37.83;;;15.30;99.90;;;;;;5051598;28;20465;-76
2023/10/30 11:07:30;;;;;;;53.03;26.43;;;15.40;99.90;;;;;;5052923;28;20403;-78
2023/10/30 11:10:00;;;;;;;51.10;26.80;;;15.70;99.90;;;;;;5053195;28;20900;-76
2023/10/30 11:13:03;;;;;;;51.50;27.50;;;16.00;99.90;;;;;;5052970;28;20395;-76
2023/10/30 11:15:36;;;;;;;49.10;20.27;;;16.20;99.90;;;;;;5052978;28;20828;-76
2023/10/30 11:18:23;;;;;;;49.27;22.80;;;16.30;99.90;;;;;;5052635;28;20460;-76
2023/10/30 11:21:11;;;;;;;53.43;26.97;;;16.20;99.90;;;;;;5053389;28;20399;-76
2023/10/30 11:23:52;;;;;;;50.07;24.83;;;16.20;99.90;;;;;;5053727;28;20776;-76
2023/10/30 11:26:30;;;;;;;51.70;27.47;;;16.00;99.90;;;;;;5056332;28;20407;-76
2023/10/30 11:29:01;;;;;;;50.33;22.63;;;15.80;99.90;;;;;;5055316;28;20411;-76
2023/10/30 11:31:31;;;;;;;51.47;24.17;;;15.80;99.90;;;;;;5056645;28;20388;-76
2023/10/30 11:34:16;;;;;;;53.27;29.03;;;15.80;99.90;;;;;;5056708;28;20788;-76
2023/10/30 11:36:45;;;;;;;50.90;24.50;;;15.70;99.90;;;;;;5056743;28;20431;-76
2023/10/30 11:39:14;;;;;;;50.07;22.80;;;15.70;99.90;;;;;;5056891;28;20404;-76
2023/10/30 11:41:46;;;;;;;51.40;26.97;;;15.70;99.90;;;;;;5056944;28;20408;-76
2023/10/30 11:44:13;;;;;;;52.50;27.10;;;15.70;99.90;;;;;;5056525;28;20828;-76
2023/10/30 11:46:46;;;;;;;52.93;28.40;;;15.70;99.90;;;;;;5056518;28;20773;-76
2023/10/30 11:49:13;;;;;;;54.07;28.77;;;15.60;99.90;;;;;;5056372;28;20418;-76
2023/10/30 11:51:46;;;;;;;55.70;36.80;;;15.60;99.90;;;;;;5056704;28;20406;-76
2023/10/30 11:54:20;;;;;;;56.37;32.77;;;15.60;99.90;;;;;;5037814;28;20424;-76
2023/10/30 11:56:50;;;;;;;55.90;38.00;;;15.60;99.90;;;;;;5056232;28;20427;-76
2023/10/30 11:59:21;;;;;;;55.17;35.33;;;15.70;99.90;;;;;;5056113;28;20773;-76
2023/10/30 12:01:49;;;;;;;55.57;37.30;;;15.70;99.90;;;;;;5056407;28;20376;-76
2023/10/30 12:04:22;;;;;;;55.47;33.30;;;15.70;99.90;;;;;;5055915;28;20422;-76
2023/10/30 12:06:48;;;;;;;54.70;33.57;;;15.80;99.90;;;;;;5055981;28;20887;-76
2023/10/30 12:09:18;;;;;;;55.30;34.27;;;15.80;99.90;;;;;;5056432;28;20410;-76
2023/10/30 12:11:44;;;;;;;53.40;29.23;;;15.90;99.90;;;;;;5056156;28;20408;-76
2023/10/30 12:14:15;;;;;;;51.57;25.80;;;15.80;99.90;;;;;;5056031;28;20840;-76
2023/10/30 12:16:49;;;;;;;53.60;30.87;;;15.90;99.90;;;;;;5055994;28;20570;-75
2023/10/30 12:19:21;;;;;;;54.17;29.37;;;15.90;99.90;;;;;;5055684;28;20455;-76